createdAt,value
2022-09-16T00:00:19.161Z,99441.00
2022-09-16T00:01:22.022Z,99429.09
2022-09-16T00:02:24.261Z,99434.91
2022-09-16T00:03:26.595Z,99430.50
2022-09-16T00:04:28.824Z,99437.69
2022-09-16T00:05:31.145Z,99436.06
2022-09-16T00:06:33.258Z,99426.09
2022-09-16T00:07:35.881Z,99421.66
2022-09-16T00:08:40.794Z,99428.31
2022-09-16T00:09:42.905Z,99425.56
2022-09-16T00:10:45.458Z,99425.84
2022-09-16T00:11:48.477Z,99421.44
2022-09-16T00:12:50.835Z,99426.97
2022-09-16T00:13:53.075Z,99422.56
2022-09-16T00:14:55.589Z,99420.09
2022-09-16T00:16:00.111Z,99425.63
2022-09-16T00:17:02.311Z,99424.28
2022-09-16T00:18:04.609Z,99429.03
2022-09-16T00:19:13.274Z,99430.13
2022-09-16T00:20:15.497Z,99431.25
2022-09-16T00:21:17.719Z,99430.75
2022-09-16T00:22:19.869Z,99434.34
2022-09-16T00:23:22.084Z,99430.22
2022-09-16T00:24:24.245Z,99434.94
2022-09-16T00:25:26.353Z,99437.19
2022-09-16T00:26:29.937Z,99445.50
2022-09-16T00:27:32.138Z,99438.31
2022-09-16T00:28:34.261Z,99437.50
2022-09-16T00:29:36.602Z,99438.63
2022-09-16T00:30:38.778Z,99438.63
2022-09-16T00:31:41.015Z,99442.50
2022-09-16T00:32:43.249Z,99446.44
2022-09-16T00:33:45.398Z,99442.00
2022-09-16T00:34:47.582Z,99439.22
2022-09-16T00:35:49.730Z,99441.16
2022-09-16T00:36:52.202Z,99438.69
2022-09-16T00:37:54.345Z,99439.81
2022-09-16T00:38:56.555Z,99433.44
2022-09-16T00:39:58.742Z,99431.78
2022-09-16T00:41:01.123Z,99428.22
2022-09-16T00:42:04.957Z,99429.31
2022-09-16T00:43:10.726Z,99432.91
2022-09-16T00:44:51.821Z,99436.00
2022-09-16T00:46:04.678Z,99427.69
2022-09-16T00:47:06.995Z,99426.31
2022-09-16T00:48:15.529Z,99427.97
2022-09-16T00:49:27.334Z,99432.72
2022-09-16T00:51:01.643Z,99439.38
2022-09-16T00:52:07.162Z,99440.50
2022-09-16T00:53:16.267Z,99436.06
2022-09-16T00:54:20.099Z,99432.47
2022-09-16T00:55:28.102Z,99437.22
2022-09-16T00:56:34.694Z,99438.34
2022-09-16T00:57:38.291Z,99427.25
2022-09-16T00:58:48.608Z,99444.69
2022-09-16T00:59:55.732Z,99436.69
2022-09-16T01:00:57.965Z,99443.34
2022-09-16T01:02:06.819Z,99442.22
2022-09-16T01:03:09.130Z,99443.34
2022-09-16T01:04:22.518Z,99439.75
2022-09-16T01:05:26.806Z,99440.88
2022-09-16T01:06:29.554Z,99434.50
2022-09-16T01:07:43.939Z,99433.66
2022-09-16T01:08:46.585Z,99444.75
2022-09-16T01:09:48.895Z,99440.34
2022-09-16T01:10:51.075Z,99441.47
2022-09-16T01:11:53.600Z,99439.53
2022-09-16T01:12:59.855Z,99444.53
2022-09-16T01:14:23.190Z,99430.97
2022-09-16T01:15:45.014Z,99440.41
2022-09-16T01:17:08.913Z,99439.59
2022-09-16T01:18:37.271Z,99437.94
2022-09-16T01:20:19.215Z,99433.50
2022-09-16T01:21:26.987Z,99446.84
2022-09-16T01:22:56.889Z,99432.19
2022-09-16T01:24:24.978Z,99443.84
2022-09-16T01:25:54.719Z,99440.28
2022-09-16T01:27:28.102Z,99440.84
2022-09-16T01:28:51.695Z,99442.00
2022-09-16T01:30:02.505Z,99442.25
2022-09-16T01:31:29.506Z,99448.94
2022-09-16T01:32:49.441Z,99451.19
2022-09-16T01:34:13.464Z,99441.53
2022-09-16T01:35:35.611Z,99443.75
2022-09-16T01:37:10.913Z,99445.16
2022-09-16T01:38:20.416Z,99442.69
2022-09-16T01:39:25.233Z,99446.63
2022-09-16T01:40:52.530Z,99446.88
2022-09-16T01:42:18.763Z,99448.84
2022-09-16T01:43:51.889Z,99443.56
2022-09-16T01:44:53.981Z,99449.41
2022-09-16T01:45:57.842Z,99448.56
2022-09-16T01:47:05.801Z,99453.31
2022-09-16T01:48:19.720Z,99452.47
2022-09-16T01:49:31.425Z,99450.00
2022-09-16T01:50:43.417Z,99454.72
2022-09-16T01:51:57.150Z,99449.47
2022-09-16T01:53:17.411Z,99454.19
2022-09-16T01:54:29.725Z,99454.19
2022-09-16T01:55:58.793Z,99441.44
2022-09-16T01:57:41.986Z,99448.94
2022-09-16T01:59:06.508Z,99436.19
2022-09-16T02:00:16.358Z,99445.34
2022-09-16T02:01:44.748Z,99446.47
2022-09-16T02:03:11.810Z,99438.16
2022-09-16T02:04:18.661Z,99444.50
2022-09-16T02:05:29.324Z,99439.28
2022-09-16T02:06:34.074Z,99441.22
2022-09-16T02:07:40.379Z,99442.84
2022-09-16T02:08:54.267Z,99454.78
2022-09-16T02:10:00.691Z,99447.59
2022-09-16T02:11:06.341Z,99447.59
2022-09-16T02:12:14.462Z,99454.78
2022-09-16T02:13:24.259Z,99453.94
2022-09-16T02:14:32.135Z,99455.59
2022-09-16T02:15:34.568Z,99448.41
2022-09-16T02:16:42.950Z,99453.66
2022-09-16T02:17:51.935Z,99456.44
2022-09-16T02:19:02.266Z,99452.50
2022-09-16T02:20:07.831Z,99459.22
2022-09-16T02:21:15.937Z,99449.75
2022-09-16T02:22:30.212Z,99453.38
2022-09-16T02:23:46.019Z,99455.03
2022-09-16T02:24:48.565Z,99450.59
2022-09-16T02:25:52.498Z,99445.06
2022-09-16T02:27:00.875Z,99449.47
2022-09-16T02:28:07.295Z,99446.72
2022-09-16T02:29:19.694Z,99446.72
2022-09-16T02:30:23.253Z,99446.72
2022-09-16T02:31:33.911Z,99444.75
2022-09-16T02:32:42.069Z,99452.75
2022-09-16T02:34:07.321Z,99438.91
2022-09-16T02:35:12.705Z,99441.69
2022-09-16T02:36:20.473Z,99438.91
2022-09-16T02:37:31.090Z,99442.53
2022-09-16T02:38:40.361Z,99445.00
2022-09-16T02:39:46.738Z,99440.56
2022-09-16T02:40:56.626Z,99436.97
2022-09-16T02:41:59.709Z,99435.84
2022-09-16T02:43:02.790Z,99445.00
2022-09-16T02:44:05.741Z,99444.16
2022-09-16T02:45:08.698Z,99449.69
2022-09-16T02:46:35.493Z,99445.00
2022-09-16T02:48:15.807Z,99445.00
2022-09-16T02:49:33.941Z,99454.13
2022-09-16T02:50:59.079Z,99443.88
2022-09-16T02:52:15.910Z,99444.69
2022-09-16T02:53:52.016Z,99447.75
2022-09-16T02:55:22.422Z,99442.22
2022-09-16T02:56:31.962Z,99442.22
2022-09-16T02:57:34.174Z,99444.16
2022-09-16T02:58:36.325Z,99444.16
2022-09-16T02:59:39.455Z,99445.00
2022-09-16T03:00:46.724Z,99440.56
2022-09-16T03:01:49.009Z,99447.22
2022-09-16T03:02:51.575Z,99436.13
2022-09-16T03:03:55.883Z,99446.09
2022-09-16T03:04:58.025Z,99438.91
2022-09-16T03:06:06.513Z,99445.28
2022-09-16T03:07:11.509Z,99440.56
2022-09-16T03:08:13.678Z,99439.75
2022-09-16T03:09:18.415Z,99444.44
2022-09-16T03:10:24.036Z,99434.47
2022-09-16T03:11:31.920Z,99445.28
2022-09-16T03:13:02.170Z,99440.88
2022-09-16T03:14:29.646Z,99444.16
2022-09-16T03:15:53.802Z,99447.22
2022-09-16T03:17:00.625Z,99450.00
2022-09-16T03:18:36.759Z,99446.41
2022-09-16T03:20:12.087Z,99432.84
2022-09-16T03:21:28.108Z,99445.56
2022-09-16T03:22:42.306Z,99443.94
2022-09-16T03:23:49.694Z,99434.78
2022-09-16T03:25:06.609Z,99437.56
2022-09-16T03:26:26.851Z,99442.28
2022-09-16T03:27:47.034Z,99442.28
2022-09-16T03:29:23.305Z,99440.63
2022-09-16T03:30:25.527Z,99437.84
2022-09-16T03:31:37.289Z,99437.03
2022-09-16T03:32:53.662Z,99441.75
2022-09-16T03:34:12.844Z,99444.50
2022-09-16T03:35:17.669Z,99441.75
2022-09-16T03:36:26.967Z,99438.97
2022-09-16T03:37:34.754Z,99440.63
2022-09-16T03:38:39.039Z,99435.38
2022-09-16T03:39:42.185Z,99440.09
2022-09-16T03:40:46.283Z,99439.28
2022-09-16T03:41:49.085Z,99440.63
2022-09-16T03:42:51.303Z,99444.50
2022-09-16T03:43:59.070Z,99441.75
2022-09-16T03:45:04.004Z,99444.50
2022-09-16T03:46:30.456Z,99443.69
2022-09-16T03:47:33.984Z,99444.50
2022-09-16T03:48:36.116Z,99438.16
2022-09-16T03:49:38.749Z,99439.81
2022-09-16T03:50:43.541Z,99435.38
2022-09-16T03:51:45.666Z,99440.94
2022-09-16T03:52:47.856Z,99440.09
2022-09-16T03:53:51.596Z,99442.84
2022-09-16T03:54:53.737Z,99443.69
2022-09-16T03:55:55.916Z,99436.50
2022-09-16T03:56:58.290Z,99438.47
2022-09-16T03:58:00.434Z,99439.28
2022-09-16T03:59:02.588Z,99436.50
2022-09-16T04:00:07.448Z,99442.03
2022-09-16T04:01:15.635Z,99435.69
2022-09-16T04:02:18.576Z,99434.84
2022-09-16T04:03:20.812Z,99439.28
2022-09-16T04:04:23.209Z,99434.03
2022-09-16T04:05:25.448Z,99439.56
2022-09-16T04:06:27.574Z,99444.28
2022-09-16T04:07:29.752Z,99433.19
2022-09-16T04:08:32.212Z,99438.72
2022-09-16T04:09:34.368Z,99436.81
2022-09-16T04:10:36.514Z,99431.25
2022-09-16T04:11:39.717Z,99438.47
2022-09-16T04:12:41.936Z,99434.03
2022-09-16T04:13:44.069Z,99437.63
2022-09-16T04:14:46.337Z,99438.47
2022-09-16T04:15:48.604Z,99429.31
2022-09-16T04:16:50.768Z,99435.69
2022-09-16T04:17:52.963Z,99436.81
2022-09-16T04:18:55.154Z,99439.28
2022-09-16T04:19:57.314Z,99433.72
2022-09-16T04:21:01.868Z,99438.16
2022-09-16T04:22:04.052Z,99434.53
2022-09-16T04:23:06.187Z,99441.75
2022-09-16T04:24:12.808Z,99440.09
2022-09-16T04:25:15.425Z,99440.94
2022-09-16T04:26:17.731Z,99438.97
2022-09-16T04:27:19.897Z,99438.16
2022-09-16T04:28:22.453Z,99432.63
2022-09-16T04:29:25.303Z,99438.16
2022-09-16T04:30:27.516Z,99435.38
2022-09-16T04:31:30.505Z,99434.28
2022-09-16T04:32:32.617Z,99433.44
2022-09-16T04:33:35.881Z,99434.28
2022-09-16T04:34:38.023Z,99431.50
2022-09-16T04:35:40.286Z,99439.50
2022-09-16T04:36:42.481Z,99433.97
2022-09-16T04:37:44.621Z,99433.13
2022-09-16T04:38:48.224Z,99434.28
2022-09-16T04:39:50.457Z,99433.97
2022-09-16T04:40:54.423Z,99445.06
2022-09-16T04:41:56.849Z,99440.31
2022-09-16T04:42:58.994Z,99441.44
2022-09-16T04:44:01.328Z,99440.03
2022-09-16T04:45:04.064Z,99437.56
2022-09-16T04:46:06.975Z,99444.75
2022-09-16T04:47:09.126Z,99450.28
2022-09-16T04:48:11.280Z,99448.63
2022-09-16T04:49:13.925Z,99445.06
2022-09-16T04:50:16.202Z,99448.63
2022-09-16T04:51:20.256Z,99445.06
2022-09-16T04:52:22.534Z,99446.72
2022-09-16T04:53:25.185Z,99449.47
2022-09-16T04:54:27.958Z,99449.47
2022-09-16T04:55:30.203Z,99451.09
2022-09-16T04:56:32.857Z,99451.09
2022-09-16T04:57:35.139Z,99450.28
2022-09-16T04:58:37.291Z,99448.34
2022-09-16T04:59:39.479Z,99449.19
2022-09-16T05:00:41.656Z,99453.06
2022-09-16T05:01:44.025Z,99450.00
2022-09-16T05:02:46.683Z,99454.41
2022-09-16T05:03:51.370Z,99450.00
2022-09-16T05:04:53.521Z,99445.28
2022-09-16T05:06:07.820Z,99446.91
2022-09-16T05:07:09.949Z,99448.06
2022-09-16T05:08:13.128Z,99447.75
2022-09-16T05:09:15.357Z,99448.88
2022-09-16T05:10:17.483Z,99446.09
2022-09-16T05:11:22.558Z,99450.84
2022-09-16T05:12:24.718Z,99454.41
2022-09-16T05:13:27.510Z,99454.41
2022-09-16T05:14:29.742Z,99459.97
2022-09-16T05:15:33.991Z,99452.75
2022-09-16T05:16:36.197Z,99462.72
2022-09-16T05:17:50.997Z,99460.78
2022-09-16T05:18:56.379Z,99459.97
2022-09-16T05:19:58.532Z,99466.31
2022-09-16T05:21:02.377Z,99463.53
2022-09-16T05:22:07.272Z,99461.63
2022-09-16T05:23:10.556Z,99458.84
2022-09-16T05:24:14.003Z,99462.72
2022-09-16T05:25:16.161Z,99458.00
2022-09-16T05:26:21.572Z,99459.97
2022-09-16T05:27:23.833Z,99459.97
2022-09-16T05:28:26.011Z,99461.91
2022-09-16T05:29:28.166Z,99462.72
2022-09-16T05:30:30.316Z,99458.00
2022-09-16T05:31:38.045Z,99463.53
2022-09-16T05:32:40.177Z,99459.16
2022-09-16T05:33:46.276Z,99466.31
2022-09-16T05:34:49.849Z,99455.22
2022-09-16T05:35:52.000Z,99460.78
2022-09-16T05:36:55.829Z,99461.63
2022-09-16T05:37:57.962Z,99461.31
2022-09-16T05:39:21.506Z,99458.53
2022-09-16T05:40:23.248Z,99454.97
2022-09-16T05:41:25.974Z,99458.28
2022-09-16T05:42:30.411Z,99450.81
2022-09-16T05:43:33.412Z,99453.28
2022-09-16T05:44:36.082Z,99450.50
2022-09-16T05:45:38.718Z,99446.63
2022-09-16T05:46:41.564Z,99445.47
2022-09-16T05:47:50.606Z,99446.81
2022-09-16T05:48:53.350Z,99456.50
2022-09-16T05:49:55.654Z,99451.47
2022-09-16T05:51:00.108Z,99452.53
2022-09-16T05:52:02.808Z,99455.00
2022-09-16T05:53:04.944Z,99458.31
2022-09-16T05:54:07.375Z,99452.47
2022-09-16T05:55:09.636Z,99454.63
2022-09-16T05:56:20.481Z,99462.38
2022-09-16T05:57:23.976Z,99463.72
2022-09-16T05:58:28.167Z,99460.34
2022-09-16T05:59:30.303Z,99464.47
2022-09-16T06:00:32.510Z,99463.84
2022-09-16T06:01:36.043Z,99460.19
2022-09-16T06:02:38.450Z,99462.38
2022-09-16T06:03:42.600Z,99459.53
2022-09-16T06:04:44.729Z,99450.09
2022-09-16T06:05:46.922Z,99461.91
2022-09-16T06:06:49.094Z,99461.84
2022-09-16T06:07:51.227Z,99461.50
2022-09-16T06:08:55.954Z,99459.44
2022-09-16T06:09:58.142Z,99459.06
2022-09-16T06:11:02.921Z,99460.31
2022-09-16T06:12:05.318Z,99458.28
2022-09-16T06:13:07.883Z,99459.84
2022-09-16T06:14:11.267Z,99453.91
2022-09-16T06:15:13.504Z,99457.16
2022-09-16T06:16:15.890Z,99460.34
2022-09-16T06:17:18.146Z,99454.41
2022-09-16T06:18:21.530Z,99461.22
2022-09-16T06:19:23.771Z,99461.34
2022-09-16T06:20:25.975Z,99458.69
2022-09-16T06:21:28.695Z,99453.25
2022-09-16T06:22:30.963Z,99452.75
2022-09-16T06:23:34.062Z,99459.22
2022-09-16T06:24:36.236Z,99457.06
2022-09-16T06:25:38.408Z,99457.66
2022-09-16T06:26:42.658Z,99460.25
2022-09-16T06:27:44.833Z,99452.00
2022-09-16T06:28:47.820Z,99450.66
2022-09-16T06:29:49.941Z,99446.81
2022-09-16T06:31:02.407Z,99449.88
2022-09-16T06:32:04.664Z,99443.75
2022-09-16T06:33:07.186Z,99453.81
2022-09-16T06:34:16.249Z,99448.50
2022-09-16T06:35:18.438Z,99447.41
2022-09-16T06:36:23.931Z,99452.75
2022-09-16T06:37:29.012Z,99451.19
2022-09-16T06:38:31.290Z,99454.50
2022-09-16T06:39:33.513Z,99457.69
2022-09-16T06:40:35.786Z,99458.88
2022-09-16T06:41:38.036Z,99459.53
2022-09-16T06:42:40.457Z,99455.16
2022-09-16T06:43:44.500Z,99463.06
2022-09-16T06:44:46.907Z,99460.97
2022-09-16T06:45:49.470Z,99458.34
2022-09-16T06:46:51.690Z,99456.56
2022-09-16T06:47:53.818Z,99465.94
2022-09-16T06:48:59.356Z,99455.25
2022-09-16T06:50:05.908Z,99457.75
2022-09-16T06:51:11.338Z,99465.47
2022-09-16T06:52:13.538Z,99457.91
2022-09-16T06:53:15.718Z,99456.75
2022-09-16T06:54:17.953Z,99462.00
2022-09-16T06:55:20.152Z,99450.06
2022-09-16T06:56:22.668Z,99451.69
2022-09-16T06:57:24.943Z,99450.06
2022-09-16T06:58:27.155Z,99452.31
2022-09-16T06:59:29.325Z,99458.22
2022-09-16T07:00:31.477Z,99458.22
2022-09-16T07:01:34.279Z,99453.78
2022-09-16T07:02:36.822Z,99454.13
2022-09-16T07:03:41.164Z,99454.44
2022-09-16T07:04:43.404Z,99455.09
2022-09-16T07:05:59.610Z,99450.34
2022-09-16T07:07:10.316Z,99449.53
2022-09-16T07:08:12.930Z,99455.59
2022-09-16T07:09:15.136Z,99451.66
2022-09-16T07:10:17.260Z,99456.28
2022-09-16T07:11:24.132Z,99450.88
2022-09-16T07:12:26.290Z,99463.00
2022-09-16T07:13:28.954Z,99459.28
2022-09-16T07:14:32.784Z,99444.41
2022-09-16T07:15:42.300Z,99456.22
2022-09-16T07:16:53.462Z,99452.13
2022-09-16T07:17:55.677Z,99456.72
2022-09-16T07:19:01.053Z,99450.19
2022-09-16T07:20:03.880Z,99461.19
2022-09-16T07:21:19.638Z,99446.22
2022-09-16T07:22:21.882Z,99448.41
2022-09-16T07:23:24.369Z,99462.50
2022-09-16T07:24:26.537Z,99455.44
2022-09-16T07:25:32.470Z,99460.72
2022-09-16T07:26:40.976Z,99463.16
2022-09-16T07:27:43.110Z,99458.72
2022-09-16T07:28:47.325Z,99466.78
2022-09-16T07:29:49.584Z,99466.78
2022-09-16T07:30:51.881Z,99463.97
2022-09-16T07:31:54.386Z,99467.91
2022-09-16T07:32:57.161Z,99469.09
2022-09-16T07:34:04.274Z,99471.88
2022-09-16T07:35:07.272Z,99471.88
2022-09-16T07:36:12.309Z,99469.91
2022-09-16T07:37:15.003Z,99470.69
2022-09-16T07:38:17.194Z,99465.97
2022-09-16T07:39:19.868Z,99474.34
2022-09-16T07:40:23.759Z,99467.91
2022-09-16T07:41:32.529Z,99463.16
2022-09-16T07:42:34.673Z,99464.81
2022-09-16T07:43:37.634Z,99462.50
2022-09-16T07:44:39.843Z,99469.22
2022-09-16T07:45:44.331Z,99460.03
2022-09-16T07:46:46.997Z,99463.66
2022-09-16T07:47:50.346Z,99470.06
2022-09-16T07:48:52.482Z,99465.63
2022-09-16T07:49:56.194Z,99458.41
2022-09-16T07:51:00.689Z,99462.84
2022-09-16T07:52:02.820Z,99463.66
2022-09-16T07:53:05.325Z,99466.44
2022-09-16T07:54:09.383Z,99463.97
2022-09-16T07:55:12.899Z,99464.31
2022-09-16T07:56:17.619Z,99463.50
2022-09-16T07:57:20.579Z,99463.81
2022-09-16T07:58:23.176Z,99467.78
2022-09-16T07:59:25.362Z,99459.22
2022-09-16T08:00:27.637Z,99460.38
2022-09-16T08:01:31.441Z,99462.34
2022-09-16T08:02:33.789Z,99453.47
2022-09-16T08:03:37.414Z,99464.63
2022-09-16T08:04:40.047Z,99464.94
2022-09-16T08:05:42.518Z,99466.09
2022-09-16T08:06:44.929Z,99455.28
2022-09-16T08:07:47.072Z,99452.81
2022-09-16T08:08:53.117Z,99459.53
2022-09-16T08:09:55.824Z,99453.94
2022-09-16T08:11:00.465Z,99457.06
2022-09-16T08:12:05.076Z,99463.78
2022-09-16T08:13:08.855Z,99454.91
2022-09-16T08:14:11.051Z,99457.41
2022-09-16T08:15:13.287Z,99455.75
2022-09-16T08:16:17.987Z,99454.63
2022-09-16T08:17:23.209Z,99457.06
2022-09-16T08:18:25.402Z,99454.28
2022-09-16T08:19:27.562Z,99453.94
2022-09-16T08:20:29.748Z,99449.19
2022-09-16T08:21:31.929Z,99448.03
2022-09-16T08:22:34.448Z,99447.72
2022-09-16T08:23:37.885Z,99445.75
2022-09-16T08:24:40.062Z,99441.50
2022-09-16T08:25:42.594Z,99443.63
2022-09-16T08:26:44.834Z,99437.88
2022-09-16T08:27:47.111Z,99443.47
2022-09-16T08:29:07.955Z,99437.56
2022-09-16T08:30:12.025Z,99444.97
2022-09-16T08:31:14.252Z,99442.34
2022-09-16T08:32:16.419Z,99447.25
2022-09-16T08:33:23.387Z,99447.09
2022-09-16T08:34:25.597Z,99447.75
2022-09-16T08:35:27.784Z,99455.94
2022-09-16T08:36:30.110Z,99453.84
2022-09-16T08:37:32.254Z,99446.91
2022-09-16T08:38:35.337Z,99450.06
2022-09-16T08:39:37.518Z,99451.22
2022-09-16T08:40:45.184Z,99446.44
2022-09-16T08:42:27.449Z,99457.72
2022-09-16T08:43:57.680Z,99457.22
2022-09-16T08:45:26.324Z,99448.63
2022-09-16T08:46:40.531Z,99451.88
2022-09-16T08:48:24.079Z,99452.84
2022-09-16T08:49:51.235Z,99456.38
2022-09-16T08:50:53.896Z,99464.75
2022-09-16T08:51:58.984Z,99453.81
2022-09-16T08:53:05.657Z,99454.94
2022-09-16T08:54:13.329Z,99461.13
2022-09-16T08:55:37.783Z,99459.44
2022-09-16T08:56:44.944Z,99462.41
2022-09-16T08:58:13.428Z,99457.75
2022-09-16T08:59:22.009Z,99458.25
2022-09-16T09:00:24.463Z,99451.84
2022-09-16T09:01:45.140Z,99459.06
2022-09-16T09:03:02.602Z,99462.19
2022-09-16T09:04:06.038Z,99460.56
2022-09-16T09:05:25.798Z,99458.09
2022-09-16T09:06:48.534Z,99456.44
2022-09-16T09:08:29.744Z,99456.34
2022-09-16T09:09:47.163Z,99458.97
2022-09-16T09:11:14.931Z,99448.44
2022-09-16T09:12:23.682Z,99451.13
2022-09-16T09:13:42.030Z,99439.78
2022-09-16T09:15:03.129Z,99457.56
2022-09-16T09:16:25.246Z,99449.38
2022-09-16T09:17:49.346Z,99458.78
2022-09-16T09:19:04.583Z,99455.03
2022-09-16T09:20:18.599Z,99459.34
2022-09-16T09:22:05.727Z,99457.38
2022-09-16T09:23:22.922Z,99460.34
2022-09-16T09:25:06.509Z,99459.06
2022-09-16T09:26:19.286Z,99457.28
2022-09-16T09:27:35.523Z,99447.94
2022-09-16T09:28:52.732Z,99451.88
2022-09-16T09:30:36.265Z,99450.53
2022-09-16T09:31:56.865Z,99448.44
2022-09-16T09:33:47.261Z,99442.69
2022-09-16T09:35:06.404Z,99433.00
2022-09-16T09:36:16.763Z,99435.63
2022-09-16T09:37:55.190Z,99436.31
2022-09-16T09:39:01.536Z,99436.66
2022-09-16T09:40:19.336Z,99439.44
2022-09-16T09:41:33.845Z,99438.94
2022-09-16T09:43:10.048Z,99432.53
2022-09-16T09:44:40.129Z,99422.16
2022-09-16T09:46:26.628Z,99426.28
2022-09-16T09:47:47.509Z,99420.34
2022-09-16T09:48:58.215Z,99423.94
2022-09-16T09:50:13.772Z,99424.94
2022-09-16T09:51:31.952Z,99420.16
2022-09-16T09:52:42.200Z,99415.88
2022-09-16T09:53:49.982Z,99414.72
2022-09-16T09:54:55.417Z,99417.19
2022-09-16T09:56:26.700Z,99416.03
2022-09-16T09:57:47.878Z,99416.84
2022-09-16T09:59:08.880Z,99418.81
2022-09-16T10:00:18.309Z,99410.91
2022-09-16T10:01:21.116Z,99419.63
2022-09-16T10:02:23.859Z,99425.56
2022-09-16T10:03:28.426Z,99424.41
2022-09-16T10:04:37.992Z,99425.91
2022-09-16T10:05:41.316Z,99435.44
2022-09-16T10:06:46.119Z,99439.38
2022-09-16T10:07:49.666Z,99435.97
2022-09-16T10:08:54.173Z,99435.00
2022-09-16T10:10:03.739Z,99436.66
2022-09-16T10:11:22.695Z,99443.06
2022-09-16T10:12:35.172Z,99439.81
2022-09-16T10:13:48.368Z,99454.13
2022-09-16T10:14:50.502Z,99445.78
2022-09-16T10:16:16.460Z,99444.16
2022-09-16T10:17:19.797Z,99436.41
2022-09-16T10:18:29.951Z,99434.94
2022-09-16T10:19:39.871Z,99434.94
2022-09-16T10:20:44.734Z,99430.50
2022-09-16T10:21:56.156Z,99433.78
2022-09-16T10:23:09.397Z,99431.00
2022-09-16T10:24:33.477Z,99428.19
2022-09-16T10:25:36.137Z,99426.72
2022-09-16T10:26:41.179Z,99419.66
2022-09-16T10:27:53.852Z,99415.88
2022-09-16T10:29:13.851Z,99421.59
2022-09-16T10:30:19.826Z,99426.50
2022-09-16T10:31:24.136Z,99417.47
2022-09-16T10:32:26.382Z,99417.25
2022-09-16T10:33:36.673Z,99420.72
2022-09-16T10:34:42.323Z,99421.66
2022-09-16T10:35:57.975Z,99424.31
2022-09-16T10:37:13.612Z,99426.06
2022-09-16T10:38:23.756Z,99418.88
2022-09-16T10:39:28.548Z,99417.22
2022-09-16T10:40:31.800Z,99421.16
2022-09-16T10:41:46.522Z,99421.47
2022-09-16T10:42:52.207Z,99416.72
2022-09-16T10:43:58.298Z,99418.03
2022-09-16T10:45:18.399Z,99413.31
2022-09-16T10:46:21.374Z,99416.56
2022-09-16T10:47:27.737Z,99417.88
2022-09-16T10:48:31.391Z,99414.47
2022-09-16T10:49:50.217Z,99418.25
2022-09-16T10:51:04.033Z,99418.41
2022-09-16T10:52:22.066Z,99412.72
2022-09-16T10:53:44.335Z,99413.72
2022-09-16T10:54:47.570Z,99414.38
2022-09-16T10:56:15.797Z,99410.94
2022-09-16T10:57:26.848Z,99409.97
2022-09-16T10:58:29.340Z,99408.16
2022-09-16T10:59:31.495Z,99405.22
2022-09-16T11:00:45.967Z,99406.53
2022-09-16T11:02:25.774Z,99405.56
2022-09-16T11:03:54.047Z,99405.22
2022-09-16T11:05:10.205Z,99418.50
2022-09-16T11:06:21.738Z,99427.06
2022-09-16T11:07:43.028Z,99424.75
2022-09-16T11:09:12.664Z,99426.41
2022-09-16T11:10:26.803Z,99424.59
2022-09-16T11:11:39.657Z,99430.16
2022-09-16T11:13:23.975Z,99429.88
2022-09-16T11:15:04.721Z,99432.97
2022-09-16T11:16:35.878Z,99435.75
2022-09-16T11:18:03.539Z,99425.25
2022-09-16T11:19:34.207Z,99431.16
2022-09-16T11:21:25.647Z,99428.72
2022-09-16T11:22:46.664Z,99429.00
2022-09-16T11:24:07.191Z,99424.59
2022-09-16T11:25:44.050Z,99421.81
2022-09-16T11:27:21.637Z,99420.97
2022-09-16T11:29:03.596Z,99419.66
2022-09-16T11:30:14.578Z,99424.44
2022-09-16T11:31:38.168Z,99431.97
2022-09-16T11:33:22.395Z,99423.91
2022-09-16T11:34:46.769Z,99418.34
2022-09-16T11:36:26.506Z,99419.50
2022-09-16T11:37:46.978Z,99419.19
2022-09-16T11:39:20.245Z,99417.19
2022-09-16T11:40:47.583Z,99405.56
2022-09-16T11:41:55.774Z,99408.34
2022-09-16T11:43:39.001Z,99401.94
2022-09-16T11:45:01.336Z,99403.59
2022-09-16T11:46:33.827Z,99403.25
2022-09-16T11:48:03.949Z,99394.56
2022-09-16T11:49:27.584Z,99393.41
2022-09-16T11:51:04.102Z,99376.66
2022-09-16T11:52:19.274Z,99383.56
2022-09-16T11:53:54.494Z,99387.16
2022-09-16T11:55:15.533Z,99384.06
2022-09-16T11:56:37.566Z,99378.50
2022-09-16T11:57:45.227Z,99385.69
2022-09-16T11:59:05.585Z,99384.88
2022-09-16T12:00:13.712Z,99381.75
2022-09-16T12:01:23.215Z,99379.47
2022-09-16T12:02:32.164Z,99374.69
2022-09-16T12:03:41.409Z,99379.63
2022-09-16T12:04:58.775Z,99372.09
2022-09-16T12:06:11.424Z,99371.75
2022-09-16T12:08:36.288Z,99363.03
2022-09-16T12:09:46.972Z,99373.56
2022-09-16T12:10:58.600Z,99374.53
2022-09-16T12:12:10.278Z,99366.97
2022-09-16T12:13:19.819Z,99357.13
2022-09-16T12:14:38.114Z,99364.34
2022-09-16T12:16:05.811Z,99364.00
2022-09-16T12:17:18.970Z,99360.88
2022-09-16T12:18:37.694Z,99370.25
2022-09-16T12:19:51.578Z,99364.34
2022-09-16T12:21:03.185Z,99362.88
2022-09-16T12:22:15.542Z,99349.38
2022-09-16T12:23:28.722Z,99359.41
2022-09-16T12:24:36.549Z,99355.47
2022-09-16T12:25:47.016Z,99364.66
2022-09-16T12:27:15.305Z,99367.94
2022-09-16T12:28:31.302Z,99358.72
2022-09-16T12:29:46.691Z,99359.06
2022-09-16T12:31:18.734Z,99364.31
2022-09-16T12:32:47.580Z,99359.25
2022-09-16T12:33:56.198Z,99358.13
2022-09-16T12:35:06.338Z,99356.63
2022-09-16T12:36:12.622Z,99359.09
2022-09-16T12:37:36.665Z,99346.78
2022-09-16T12:38:40.263Z,99346.78
2022-09-16T12:39:42.866Z,99347.56
2022-09-16T12:40:47.552Z,99341.66
2022-09-16T12:42:07.048Z,99341.34
2022-09-16T12:43:21.065Z,99335.75
2022-09-16T12:44:38.226Z,99341.00
2022-09-16T12:46:11.294Z,99333.44
2022-09-16T12:47:24.234Z,99332.63
2022-09-16T12:48:38.523Z,99340.66
2022-09-16T12:50:10.279Z,99338.69
2022-09-16T12:51:36.487Z,99340.66
2022-09-16T12:53:17.365Z,99339.53
2022-09-16T12:54:51.293Z,99343.97
2022-09-16T12:56:10.628Z,99330.31
2022-09-16T12:58:03.675Z,99339.53
2022-09-16T12:59:24.408Z,99339.19
2022-09-16T13:00:41.351Z,99335.25
2022-09-16T13:01:48.561Z,99323.75
2022-09-16T13:02:58.938Z,99330.13
2022-09-16T13:04:11.166Z,99322.59
2022-09-16T13:05:34.525Z,99328.31
2022-09-16T13:06:45.259Z,99321.91
2022-09-16T13:07:57.379Z,99317.97
2022-09-16T13:09:23.539Z,99317.63
2022-09-16T13:10:54.413Z,99325.66
2022-09-16T13:13:35.560Z,99313.84
2022-09-16T13:14:47.958Z,99318.59
2022-09-16T13:15:59.236Z,99309.06
2022-09-16T13:17:02.840Z,99314.31
2022-09-16T13:18:14.236Z,99306.78
2022-09-16T13:19:52.864Z,99305.13
2022-09-16T13:21:02.460Z,99319.56
2022-09-16T13:22:34.579Z,99305.13
2022-09-16T13:23:45.594Z,99314.66
2022-09-16T13:24:55.122Z,99310.38
2022-09-16T13:26:09.922Z,99292.81
2022-09-16T13:27:31.243Z,99302.00
2022-09-16T13:28:33.557Z,99300.00
2022-09-16T13:29:46.671Z,99299.19
2022-09-16T13:30:56.371Z,99299.19
2022-09-16T13:31:58.566Z,99296.91
2022-09-16T13:33:26.489Z,99298.06
2022-09-16T13:34:31.205Z,99292.47
2022-09-16T13:35:44.875Z,99304.94
2022-09-16T13:36:47.672Z,99301.31
2022-09-16T13:37:53.261Z,99307.75
2022-09-16T13:39:01.988Z,99299.03
2022-09-16T13:40:25.469Z,99301.00
2022-09-16T13:41:39.290Z,99299.03
2022-09-16T13:42:41.458Z,99303.81
2022-09-16T13:43:43.560Z,99308.22
2022-09-16T13:44:45.879Z,99307.41
2022-09-16T13:45:48.105Z,99304.59
2022-09-16T13:46:50.282Z,99313.31